createdAt,value
2022-10-22T00:00:45.932Z,8.30
2022-10-22T00:03:12.842Z,8.30
2022-10-22T00:05:39.257Z,8.26
2022-10-22T00:08:05.626Z,8.21
2022-10-22T00:10:32.258Z,8.20
2022-10-22T00:12:58.644Z,8.21
2022-10-22T00:15:25.107Z,8.21
2022-10-22T00:17:51.553Z,8.19
2022-10-22T00:20:18.032Z,8.17
2022-10-22T00:22:44.504Z,8.14
2022-10-22T00:25:10.952Z,8.10
2022-10-22T00:27:37.507Z,8.09
2022-10-22T00:30:04.271Z,8.07
2022-10-22T00:32:30.644Z,8.00
2022-10-22T00:34:57.005Z,7.93
2022-10-22T00:37:23.591Z,7.91
2022-10-22T00:39:49.984Z,7.91
2022-10-22T00:42:19.674Z,7.91
2022-10-22T00:45:01.321Z,7.89
2022-10-22T00:47:28.842Z,7.87
2022-10-22T00:49:56.106Z,7.88
2022-10-22T00:52:22.712Z,7.88
2022-10-22T00:54:50.138Z,7.83
2022-10-22T00:57:17.631Z,7.84
2022-10-22T00:59:44.053Z,7.86
2022-10-22T01:02:10.510Z,7.86
2022-10-22T01:04:36.954Z,7.87
2022-10-22T01:07:03.910Z,7.88
2022-10-22T01:09:33.197Z,7.87
2022-10-22T01:12:29.054Z,7.86
2022-10-22T01:15:04.506Z,7.85
2022-10-22T01:17:30.850Z,7.82
2022-10-22T01:20:09.355Z,7.82
2022-10-22T01:22:35.787Z,7.83
2022-10-22T01:25:08.331Z,7.79
2022-10-22T01:27:40.674Z,7.77
2022-10-22T01:30:08.633Z,7.78
2022-10-22T01:32:41.447Z,7.74
2022-10-22T01:35:09.354Z,7.71
2022-10-22T01:37:39.361Z,7.70
2022-10-22T01:40:07.708Z,7.69
2022-10-22T01:42:34.221Z,7.65
2022-10-22T01:45:00.645Z,7.60
2022-10-22T01:47:33.114Z,7.58
2022-10-22T01:50:05.229Z,7.58
2022-10-22T01:52:50.542Z,7.52
2022-10-22T01:55:35.562Z,7.45
2022-10-22T01:58:01.934Z,7.43
2022-10-22T02:00:28.490Z,7.39
2022-10-22T02:03:05.081Z,7.32
2022-10-22T02:05:40.268Z,7.27
2022-10-22T02:08:09.798Z,7.22
2022-10-22T02:10:38.154Z,7.20
2022-10-22T02:13:08.169Z,7.15
2022-10-22T02:15:36.742Z,7.13
2022-10-22T02:18:04.144Z,7.10
2022-10-22T02:20:32.798Z,7.09
2022-10-22T02:22:59.976Z,7.08
2022-10-22T02:25:29.378Z,7.04
2022-10-22T02:28:01.658Z,6.99
2022-10-22T02:30:28.140Z,6.98
2022-10-22T02:33:00.037Z,6.99
2022-10-22T02:35:27.684Z,6.99
2022-10-22T02:37:54.559Z,6.99
2022-10-22T02:40:21.478Z,7.00
2022-10-22T02:42:48.450Z,7.01
2022-10-22T02:45:15.747Z,7.02
2022-10-22T02:47:42.126Z,7.03
2022-10-22T02:50:10.327Z,7.05
2022-10-22T02:52:37.753Z,7.04
2022-10-22T02:55:04.792Z,7.01
2022-10-22T02:57:31.187Z,7.01
2022-10-22T02:59:57.595Z,7.04
2022-10-22T03:02:24.100Z,7.04
2022-10-22T03:04:50.476Z,6.99
2022-10-22T03:07:16.916Z,6.98
2022-10-22T03:09:43.342Z,6.91
2022-10-22T03:12:09.702Z,6.89
2022-10-22T03:14:36.095Z,6.89
2022-10-22T03:17:02.482Z,6.85
2022-10-22T03:19:28.890Z,6.82
2022-10-22T03:21:57.274Z,6.76
2022-10-22T03:24:26.085Z,6.73
2022-10-22T03:26:52.999Z,6.73
2022-10-22T03:29:22.033Z,6.69
2022-10-22T03:31:48.408Z,6.67
2022-10-22T03:34:15.116Z,6.63
2022-10-22T03:36:41.968Z,6.60
2022-10-22T03:39:09.083Z,6.56
2022-10-22T03:41:35.610Z,6.49
2022-10-22T03:44:03.109Z,6.44
2022-10-22T03:46:29.618Z,6.41
2022-10-22T03:48:56.059Z,6.38
2022-10-22T03:51:22.456Z,6.37
2022-10-22T03:53:48.839Z,6.35
2022-10-22T03:56:15.234Z,6.32
2022-10-22T03:58:41.867Z,6.25
2022-10-22T04:01:12.623Z,6.23
2022-10-22T04:03:39.793Z,6.20
2022-10-22T04:06:07.886Z,6.17
2022-10-22T04:08:34.829Z,6.11
2022-10-22T04:11:01.568Z,6.02
2022-10-22T04:13:28.044Z,6.00
2022-10-22T04:15:54.419Z,5.99
2022-10-22T04:18:22.467Z,5.98
2022-10-22T04:20:48.907Z,5.92
2022-10-22T04:23:15.284Z,5.89
2022-10-22T04:25:41.646Z,5.85
2022-10-22T04:28:08.696Z,5.80
2022-10-22T04:30:35.558Z,5.79
2022-10-22T04:33:02.023Z,5.80
2022-10-22T04:35:28.975Z,5.78
2022-10-22T04:37:55.897Z,5.76
2022-10-22T04:40:22.376Z,5.73
2022-10-22T04:42:48.749Z,5.72
2022-10-22T04:45:15.769Z,5.72
2022-10-22T04:47:42.489Z,5.69
2022-10-22T04:50:09.223Z,5.67
2022-10-22T04:52:35.573Z,5.62
2022-10-22T04:55:01.974Z,5.57
2022-10-22T04:57:31.607Z,5.60
2022-10-22T04:59:58.001Z,5.61
2022-10-22T05:02:24.578Z,5.58
2022-10-22T05:04:50.944Z,5.57
2022-10-22T05:07:17.341Z,5.58
2022-10-22T05:09:43.795Z,5.59
2022-10-22T05:12:10.240Z,5.59
2022-10-22T05:14:37.875Z,5.59
2022-10-22T05:17:06.995Z,5.60
2022-10-22T05:19:33.588Z,5.60
2022-10-22T05:22:01.449Z,5.55
2022-10-22T05:24:28.610Z,5.53
2022-10-22T05:26:56.137Z,5.54
2022-10-22T05:29:22.971Z,5.53
2022-10-22T05:31:49.363Z,5.54
2022-10-22T05:34:15.789Z,5.55
2022-10-22T05:36:42.328Z,5.56
2022-10-22T05:39:08.778Z,5.53
2022-10-22T05:41:38.476Z,5.54
2022-10-22T05:44:05.144Z,5.51
2022-10-22T05:46:34.412Z,5.50
2022-10-22T05:49:02.448Z,5.53
2022-10-22T05:51:30.012Z,5.53
2022-10-22T05:53:58.160Z,5.56
2022-10-22T05:56:25.220Z,5.55
2022-10-22T05:58:51.811Z,5.58
2022-10-22T06:01:19.868Z,5.61
2022-10-22T06:03:47.242Z,5.65
2022-10-22T06:06:19.657Z,5.71
2022-10-22T06:08:50.764Z,5.73
2022-10-22T06:11:17.963Z,5.74
2022-10-22T06:13:45.139Z,5.77
2022-10-22T06:16:11.727Z,5.81
2022-10-22T06:18:38.153Z,5.83
2022-10-22T06:21:12.581Z,5.90
2022-10-22T06:23:39.486Z,5.97
2022-10-22T06:26:06.482Z,6.02
2022-10-22T06:28:33.602Z,6.03
2022-10-22T06:31:00.849Z,6.09
2022-10-22T06:33:28.029Z,6.07
2022-10-22T06:35:54.483Z,6.08
2022-10-22T06:38:21.096Z,6.14
2022-10-22T06:40:47.492Z,6.19
2022-10-22T06:43:14.602Z,6.22
2022-10-22T06:45:40.978Z,6.26
2022-10-22T06:48:07.422Z,6.30
2022-10-22T06:50:34.611Z,6.30
2022-10-22T06:53:01.007Z,6.31
2022-10-22T06:55:27.455Z,6.35
2022-10-22T06:57:54.779Z,6.39
2022-10-22T07:00:21.576Z,6.40
2022-10-22T07:02:56.440Z,6.42
2022-10-22T07:05:25.528Z,6.42
2022-10-22T07:07:51.882Z,6.43
2022-10-22T07:10:18.322Z,6.45
2022-10-22T07:12:44.750Z,6.47
2022-10-22T07:15:11.536Z,6.50
2022-10-22T07:17:44.460Z,6.50
2022-10-22T07:20:11.126Z,6.52
2022-10-22T07:22:37.491Z,6.51
2022-10-22T07:25:07.316Z,6.55
2022-10-22T07:27:33.960Z,6.58
2022-10-22T07:30:01.494Z,6.63
2022-10-22T07:32:27.950Z,6.70
2022-10-22T07:34:54.341Z,6.73
2022-10-22T07:37:23.636Z,6.77
2022-10-22T07:39:50.016Z,6.83
2022-10-22T07:42:16.502Z,6.89
2022-10-22T07:44:43.031Z,6.95
2022-10-22T07:47:09.396Z,7.02
2022-10-22T07:49:35.783Z,7.10
2022-10-22T07:52:02.208Z,7.21
2022-10-22T07:54:28.587Z,7.31
2022-10-22T07:56:54.954Z,7.43
2022-10-22T07:59:21.367Z,7.51
2022-10-22T08:01:47.754Z,7.56
2022-10-22T08:04:14.313Z,7.64
2022-10-22T08:06:44.542Z,7.71
2022-10-22T08:09:13.688Z,7.80
2022-10-22T08:11:40.162Z,7.86
2022-10-22T08:14:06.518Z,7.94
2022-10-22T08:16:32.886Z,8.04
2022-10-22T08:18:59.281Z,8.12
2022-10-22T08:21:26.586Z,8.16
2022-10-22T08:23:52.956Z,8.21
2022-10-22T08:26:19.378Z,8.27
2022-10-22T08:28:45.771Z,8.33
2022-10-22T08:31:12.909Z,8.43
2022-10-22T08:33:39.715Z,8.47
2022-10-22T08:36:06.308Z,8.56
2022-10-22T08:38:32.707Z,8.60
2022-10-22T08:41:16.739Z,8.66
2022-10-22T08:43:49.201Z,8.71
2022-10-22T08:46:30.836Z,8.76
2022-10-22T08:49:00.087Z,8.81
2022-10-22T08:51:30.068Z,8.89
2022-10-22T08:54:21.930Z,8.98
2022-10-22T08:56:52.999Z,9.11
2022-10-22T08:59:25.510Z,9.20
2022-10-22T09:01:53.768Z,9.23
2022-10-22T09:04:25.234Z,9.33
2022-10-22T09:06:54.394Z,9.41
2022-10-22T09:09:21.203Z,9.48
2022-10-22T09:11:51.949Z,9.56
2022-10-22T09:14:22.812Z,9.67
2022-10-22T09:17:07.869Z,9.72
2022-10-22T09:19:43.313Z,9.84
2022-10-22T09:22:15.692Z,9.90
2022-10-22T09:24:45.187Z,9.96
2022-10-22T09:27:19.435Z,10.00
2022-10-22T09:29:47.206Z,10.06
2022-10-22T09:32:14.643Z,10.07
2022-10-22T09:34:43.580Z,10.12
2022-10-22T09:37:10.161Z,10.15
2022-10-22T09:39:40.989Z,10.16
2022-10-22T09:42:10.181Z,10.21
2022-10-22T09:44:37.465Z,10.27
2022-10-22T09:47:04.769Z,10.31
2022-10-22T09:49:33.798Z,10.37
2022-10-22T09:52:01.246Z,10.37
2022-10-22T09:54:38.731Z,10.36
2022-10-22T09:57:17.692Z,10.40
2022-10-22T09:59:45.131Z,10.43
2022-10-22T10:02:20.306Z,10.42
2022-10-22T10:05:02.103Z,10.45
2022-10-22T10:07:32.073Z,10.49
2022-10-22T10:09:58.790Z,10.50
2022-10-22T10:12:34.277Z,10.52
2022-10-22T10:15:08.266Z,10.56
2022-10-22T10:17:48.219Z,10.58
2022-10-22T10:20:17.412Z,10.61
2022-10-22T10:23:08.495Z,10.66
2022-10-22T10:25:40.820Z,10.70
2022-10-22T10:28:25.986Z,10.76
2022-10-22T10:30:57.274Z,10.85
2022-10-22T10:33:23.641Z,10.87
2022-10-22T10:35:50.023Z,10.91
2022-10-22T10:38:39.523Z,10.92
2022-10-22T10:41:11.648Z,10.94
2022-10-22T10:43:41.148Z,11.00
2022-10-22T10:46:26.462Z,10.99
2022-10-22T10:48:52.827Z,11.03
2022-10-22T10:51:36.982Z,11.06
2022-10-22T10:54:15.568Z,11.08
2022-10-22T10:56:45.772Z,11.11
2022-10-22T10:59:12.136Z,11.15
2022-10-22T11:01:47.378Z,11.16
2022-10-22T11:04:13.749Z,11.20
2022-10-22T11:06:40.610Z,11.20
2022-10-22T11:09:12.880Z,11.22
2022-10-22T11:11:44.251Z,11.26
2022-10-22T11:14:24.233Z,11.32
2022-10-22T11:16:57.959Z,11.33
2022-10-22T11:19:39.599Z,11.35
2022-10-22T11:22:26.937Z,11.35
2022-10-22T11:24:57.756Z,11.36
2022-10-22T11:27:33.767Z,11.37
2022-10-22T11:30:12.188Z,11.40
2022-10-22T11:32:40.023Z,11.41
2022-10-22T11:35:09.065Z,11.45
2022-10-22T11:37:36.100Z,11.46
2022-10-22T11:40:07.318Z,11.50
2022-10-22T11:42:33.655Z,11.55
2022-10-22T11:45:01.892Z,11.58
2022-10-22T11:47:29.666Z,11.61
2022-10-22T11:50:02.395Z,11.63
2022-10-22T11:52:31.766Z,11.65
2022-10-22T11:55:01.165Z,11.65
2022-10-22T11:57:27.772Z,11.66
2022-10-22T11:59:57.335Z,11.68
2022-10-22T12:02:23.752Z,11.71
2022-10-22T12:04:50.262Z,11.69
2022-10-22T12:07:33.430Z,11.69
2022-10-22T12:10:00.043Z,11.70
2022-10-22T12:12:28.826Z,11.70
2022-10-22T12:14:57.773Z,11.68
2022-10-22T12:17:24.970Z,11.66
2022-10-22T12:19:57.431Z,11.66
2022-10-22T12:22:28.073Z,11.69
2022-10-22T12:24:55.300Z,11.73
2022-10-22T12:27:25.782Z,11.72
2022-10-22T12:29:59.459Z,11.72
2022-10-22T12:32:36.442Z,11.74
2022-10-22T12:35:14.639Z,11.77
2022-10-22T12:37:41.321Z,11.79
2022-10-22T12:40:22.176Z,11.79
2022-10-22T12:42:49.774Z,11.78
2022-10-22T12:45:16.189Z,11.77
2022-10-22T12:47:46.647Z,11.73
2022-10-22T12:50:18.080Z,11.73
2022-10-22T12:52:44.636Z,11.73
2022-10-22T12:55:15.931Z,11.72
2022-10-22T12:57:42.573Z,11.69
2022-10-22T13:00:20.660Z,11.63
2022-10-22T13:02:47.637Z,11.64
2022-10-22T13:05:16.223Z,11.65
2022-10-22T13:07:44.449Z,11.62
2022-10-22T13:10:16.906Z,11.57
2022-10-22T13:12:45.103Z,11.57
2022-10-22T13:15:22.167Z,11.52
2022-10-22T13:17:51.560Z,11.52
2022-10-22T13:20:17.911Z,11.52
2022-10-22T13:22:54.743Z,11.44
2022-10-22T13:25:23.011Z,11.43
2022-10-22T13:27:51.032Z,11.46
2022-10-22T13:30:22.840Z,11.52
2022-10-22T13:32:54.718Z,11.55
2022-10-22T13:35:23.147Z,11.55
2022-10-22T13:37:49.553Z,11.57
2022-10-22T13:40:16.188Z,11.55
2022-10-22T13:42:42.912Z,11.52
2022-10-22T13:45:09.424Z,11.55
2022-10-22T13:47:35.879Z,11.55
2022-10-22T13:50:04.063Z,11.49
2022-10-22T13:52:36.321Z,11.45
2022-10-22T13:55:12.241Z,11.46
2022-10-22T13:57:38.624Z,11.44
2022-10-22T14:00:05.324Z,11.43
2022-10-22T14:02:31.724Z,11.45
2022-10-22T14:05:03.068Z,11.48
2022-10-22T14:07:29.482Z,11.48
2022-10-22T14:09:55.863Z,11.46
2022-10-22T14:12:22.455Z,11.33
2022-10-22T14:14:48.830Z,11.31
2022-10-22T14:17:16.891Z,11.32
2022-10-22T14:19:45.018Z,11.33
2022-10-22T14:22:20.532Z,11.32
2022-10-22T14:24:47.414Z,11.31
2022-10-22T14:27:15.002Z,11.29
2022-10-22T14:29:41.845Z,11.28
2022-10-22T14:32:15.447Z,11.27
2022-10-22T14:34:41.852Z,11.28
2022-10-22T14:37:19.094Z,11.28
2022-10-22T14:39:52.679Z,11.26
2022-10-22T14:42:19.558Z,11.24
2022-10-22T14:44:46.583Z,11.19
2022-10-22T14:47:12.976Z,11.10
2022-10-22T14:49:39.385Z,11.02
2022-10-22T14:52:05.765Z,11.01
2022-10-22T14:54:33.226Z,11.02
2022-10-22T14:56:59.591Z,11.04
2022-10-22T14:59:25.971Z,11.04
2022-10-22T15:01:52.348Z,11.03
2022-10-22T15:04:18.745Z,11.02
2022-10-22T15:06:45.143Z,11.01
2022-10-22T15:09:11.598Z,11.01
2022-10-22T15:11:38.022Z,10.98
2022-10-22T15:14:04.397Z,10.98
2022-10-22T15:16:30.836Z,10.96
2022-10-22T15:18:57.374Z,10.96
2022-10-22T15:21:23.860Z,10.96
2022-10-22T15:23:50.383Z,10.95
2022-10-22T15:26:16.882Z,10.94
2022-10-22T15:28:43.545Z,10.90
2022-10-22T15:31:12.392Z,10.91
2022-10-22T15:33:38.791Z,10.88
2022-10-22T15:36:12.678Z,10.87
2022-10-22T15:38:39.371Z,10.85
2022-10-22T15:41:06.279Z,10.85
2022-10-22T15:43:33.096Z,10.84
2022-10-22T15:46:09.222Z,10.84
2022-10-22T15:48:35.787Z,10.84
2022-10-22T15:51:07.143Z,10.81
2022-10-22T15:53:33.503Z,10.81
2022-10-22T15:55:59.871Z,10.79
2022-10-22T15:58:26.286Z,10.79
2022-10-22T16:00:52.677Z,10.77
2022-10-22T16:03:19.160Z,10.77
2022-10-22T16:05:54.433Z,10.76
2022-10-22T16:08:21.113Z,10.75
2022-10-22T16:10:48.550Z,10.73
2022-10-22T16:13:15.160Z,10.72
2022-10-22T16:15:41.855Z,10.71
2022-10-22T16:18:08.412Z,10.70
2022-10-22T16:20:38.784Z,10.65
2022-10-22T16:23:05.226Z,10.63
2022-10-22T16:25:37.112Z,10.62
2022-10-22T16:28:03.535Z,10.60
2022-10-22T16:30:29.894Z,10.59
2022-10-22T16:32:56.267Z,10.58
2022-10-22T16:35:22.637Z,10.58
2022-10-22T16:37:49.025Z,10.59
2022-10-22T16:40:15.467Z,10.59
2022-10-22T16:42:42.176Z,10.58
2022-10-22T16:45:08.882Z,10.47
2022-10-22T16:47:35.300Z,10.47
2022-10-22T16:50:01.999Z,10.47
2022-10-22T16:52:28.474Z,10.44
2022-10-22T16:54:55.007Z,10.43
2022-10-22T16:57:21.455Z,10.44
2022-10-22T16:59:47.823Z,10.46
2022-10-22T17:02:14.196Z,10.47
2022-10-22T17:04:40.550Z,10.45
2022-10-22T17:07:06.920Z,10.45
2022-10-22T17:09:33.320Z,10.36
2022-10-22T17:11:59.690Z,10.35
2022-10-22T17:14:26.256Z,10.38
2022-10-22T17:16:55.575Z,10.40
2022-10-22T17:19:22.942Z,10.42
2022-10-22T17:21:50.981Z,10.43
2022-10-22T17:24:18.250Z,10.42
2022-10-22T17:26:45.038Z,10.32
2022-10-22T17:29:11.631Z,10.29
2022-10-22T17:31:39.182Z,10.32
2022-10-22T17:34:06.934Z,10.34
2022-10-22T17:36:35.931Z,10.35
2022-10-22T17:39:05.053Z,10.35
2022-10-22T17:41:32.610Z,10.38
2022-10-22T17:44:02.174Z,10.37
2022-10-22T17:46:29.764Z,10.39
2022-10-22T17:48:57.558Z,10.35
2022-10-22T17:51:24.716Z,10.31
2022-10-22T17:53:51.096Z,10.32
2022-10-22T17:56:19.100Z,10.35
2022-10-22T17:58:45.504Z,10.37
2022-10-22T18:01:19.926Z,10.37
2022-10-22T18:03:46.472Z,10.39
2022-10-22T18:06:13.234Z,10.40
2022-10-22T18:08:40.014Z,10.41
2022-10-22T18:11:07.875Z,10.42
2022-10-22T18:13:34.731Z,10.41
2022-10-22T18:16:01.207Z,10.41
2022-10-22T18:18:27.600Z,10.35
2022-10-22T18:20:54.390Z,10.35
2022-10-22T18:23:21.064Z,10.37
2022-10-22T18:25:48.730Z,10.34
2022-10-22T18:28:15.865Z,10.29
2022-10-22T18:30:42.765Z,10.31
2022-10-22T18:33:11.130Z,10.31
2022-10-22T18:35:37.488Z,10.32
2022-10-22T18:38:03.845Z,10.35
2022-10-22T18:40:30.434Z,10.37
2022-10-22T18:42:57.012Z,10.38
2022-10-22T18:45:23.383Z,10.35
2022-10-22T18:47:49.833Z,10.33
2022-10-22T18:50:16.278Z,10.31
2022-10-22T18:52:42.965Z,10.30
2022-10-22T18:55:09.652Z,10.31
2022-10-22T18:57:36.058Z,10.34
2022-10-22T19:00:02.468Z,10.34
2022-10-22T19:02:29.766Z,10.29
2022-10-22T19:04:56.130Z,10.25
2022-10-22T19:07:22.515Z,10.28
2022-10-22T19:09:48.972Z,10.30
2022-10-22T19:12:15.919Z,10.25
2022-10-22T19:14:42.770Z,10.24
2022-10-22T19:17:09.163Z,10.30
2022-10-22T19:19:35.569Z,10.33
2022-10-22T19:22:01.936Z,10.30
2022-10-22T19:24:28.472Z,10.27
2022-10-22T19:26:54.945Z,10.29
2022-10-22T19:29:21.589Z,10.32
2022-10-22T19:31:48.146Z,10.33
2022-10-22T19:34:14.662Z,10.29
2022-10-22T19:36:41.065Z,10.25
2022-10-22T19:39:07.753Z,10.29
2022-10-22T19:41:34.187Z,10.24
2022-10-22T19:44:01.086Z,10.17
2022-10-22T19:46:28.436Z,10.20
2022-10-22T19:48:57.116Z,10.26
2022-10-22T19:51:25.662Z,10.26
2022-10-22T19:53:58.204Z,10.24
2022-10-22T19:56:24.891Z,10.17
2022-10-22T19:58:51.340Z,10.15
2022-10-22T20:01:18.587Z,10.14
2022-10-22T20:03:45.432Z,10.14
2022-10-22T20:06:13.812Z,10.15
2022-10-22T20:08:40.631Z,10.14
2022-10-22T20:11:10.812Z,10.16
2022-10-22T20:16:09.458Z,10.15
2022-10-22T20:18:36.313Z,10.20
2022-10-22T20:21:10.797Z,10.23
2022-10-22T20:23:37.243Z,10.24
2022-10-22T20:26:04.567Z,10.26
2022-10-22T20:28:31.025Z,10.29
2022-10-22T20:30:57.421Z,10.33
2022-10-22T20:33:23.819Z,10.36
2022-10-22T20:36:04.330Z,10.37
2022-10-22T20:38:30.856Z,10.38
2022-10-22T20:41:01.104Z,10.38
2022-10-22T20:43:27.493Z,10.39
2022-10-22T20:45:53.841Z,10.41
2022-10-22T20:48:20.202Z,10.42
2022-10-22T20:50:46.600Z,10.41
2022-10-22T20:53:16.068Z,10.43
2022-10-22T20:55:43.222Z,10.41
2022-10-22T20:58:10.154Z,10.37
2022-10-22T21:00:39.204Z,10.31
2022-10-22T21:03:06.366Z,10.27
2022-10-22T21:05:32.780Z,10.31
2022-10-22T21:07:59.150Z,10.33
2022-10-22T21:10:27.987Z,10.37
2022-10-22T21:12:58.045Z,10.39
2022-10-22T21:15:24.484Z,10.41
2022-10-22T21:17:50.855Z,10.38
2022-10-22T21:20:18.782Z,10.39
2022-10-22T21:22:48.952Z,10.36
2022-10-22T21:25:15.407Z,10.35
2022-10-22T21:27:41.841Z,10.32
2022-10-22T21:30:08.423Z,10.23
2022-10-22T21:32:34.786Z,10.19
2022-10-22T21:35:01.212Z,10.21
2022-10-22T21:37:30.077Z,10.21
2022-10-22T21:39:56.764Z,10.25
2022-10-22T21:42:23.144Z,10.28
2022-10-22T21:44:49.600Z,10.29
2022-10-22T21:47:15.977Z,10.28
2022-10-22T21:49:42.383Z,10.26
2022-10-22T21:52:08.849Z,10.29
2022-10-22T21:54:37.386Z,10.31
2022-10-22T21:57:04.386Z,10.33
2022-10-22T21:59:32.329Z,10.35
2022-10-22T22:02:03.353Z,10.35
2022-10-22T22:04:32.159Z,10.30
2022-10-22T22:06:58.570Z,10.28
2022-10-22T22:09:24.992Z,10.27
2022-10-22T22:11:51.444Z,10.23
2022-10-22T22:14:17.802Z,10.24
2022-10-22T22:16:44.167Z,10.20
2022-10-22T22:19:10.989Z,10.14
2022-10-22T22:21:39.324Z,10.14
2022-10-22T22:24:06.193Z,10.20
2022-10-22T22:26:32.800Z,10.22
2022-10-22T22:28:59.818Z,10.21
2022-10-22T22:31:30.912Z,10.20
2022-10-22T22:33:57.967Z,10.23
2022-10-22T22:36:24.338Z,10.28
2022-10-22T22:38:53.830Z,10.28
2022-10-22T22:41:20.214Z,10.25
2022-10-22T22:43:46.631Z,10.31
2022-10-22T22:46:13.087Z,10.32
2022-10-22T22:48:40.685Z,10.35
2022-10-22T22:51:07.398Z,10.38
2022-10-22T22:53:34.506Z,10.38
2022-10-22T22:56:05.312Z,10.41
2022-10-22T22:58:31.733Z,10.41
2022-10-22T23:01:09.059Z,10.40
2022-10-22T23:03:35.463Z,10.42
2022-10-22T23:06:01.830Z,10.47
2022-10-22T23:08:28.206Z,10.59
2022-10-22T23:10:54.580Z,10.71
2022-10-22T23:13:39.803Z,10.84
2022-10-22T23:16:17.186Z,10.93
2022-10-22T23:18:44.319Z,11.05
2022-10-22T23:21:12.492Z,11.14
2022-10-22T23:23:38.895Z,11.22
2022-10-22T23:26:05.364Z,11.28
2022-10-22T23:28:31.787Z,11.31
2022-10-22T23:30:58.188Z,11.36
2022-10-22T23:33:24.564Z,11.42
2022-10-22T23:35:50.944Z,11.45
2022-10-22T23:38:17.307Z,11.48
2022-10-22T23:40:43.685Z,11.52
2022-10-22T23:43:10.070Z,11.56
2022-10-22T23:45:36.586Z,11.61
2022-10-22T23:48:02.980Z,11.65
2022-10-22T23:50:29.484Z,11.65
2022-10-22T23:52:55.961Z,11.66
2022-10-22T23:55:22.309Z,11.68
2022-10-22T23:57:48.725Z,11.72
